sensor_id;sensor_type;location;lat;lon;timestamp;P1;durP1;ratioP1;P2;durP2;ratioP2
32451;SDS011;45528;52.102;5.242;2023-04-01T00:01:24;43.4;;;16.0;;
32451;SDS011;45528;52.102;5.242;2023-04-01T00:03:01;36.31;;;16.7;;
32451;SDS011;45528;52.102;5.242;2023-04-01T00:06:14;35.31;;;13.7;;
32451;SDS011;45528;52.102;5.242;2023-04-01T00:07:53;37.0;;;14.3;;
32451;SDS011;45528;52.102;5.242;2023-04-01T00:09:29;37.6;;;16.4;;
32451;SDS011;45528;52.102;5.242;2023-04-01T00:12:41;30.6;;;14.1;;
32451;SDS011;45528;52.102;5.242;2023-04-01T00:14:18;36.5;;;14.9;;
32451;SDS011;45528;52.102;5.242;2023-04-01T00:15:55;32.3;;;14.5;;
32451;SDS011;45528;52.102;5.242;2023-04-01T00:19:08;33.0;;;14.3;;
32451;SDS011;45528;52.102;5.242;2023-04-01T00:20:44;33.5;;;14.8;;
32451;SDS011;45528;52.102;5.242;2023-04-01T00:22:22;33.1;;;14.6;;
32451;SDS011;45528;52.102;5.242;2023-04-01T00:23:59;36.5;;;14.0;;
32451;SDS011;45528;52.102;5.242;2023-04-01T00:27:11;31.5;;;12.8;;
32451;SDS011;45528;52.102;5.242;2023-04-01T00:28:47;29.8;;;13.3;;
32451;SDS011;45528;52.102;5.242;2023-04-01T00:30:24;30.1;;;13.4;;
32451;SDS011;45528;52.102;5.242;2023-04-01T00:33:37;35.0;;;13.6;;
32451;SDS011;45528;52.102;5.242;2023-04-01T00:35:14;28.4;;;14.1;;
32451;SDS011;45528;52.102;5.242;2023-04-01T00:36:51;33.4;;;14.1;;
32451;SDS011;45528;52.102;5.242;2023-04-01T00:40:05;27.5;;;13.2;;
32451;SDS011;45528;52.102;5.242;2023-04-01T00:42:01;27.6;;;12.4;;
32451;SDS011;45528;52.102;5.242;2023-04-01T00:43:38;29.0;;;13.3;;
32451;SDS011;45528;52.102;5.242;2023-04-01T00:45:25;33.6;;;13.2;;
32451;SDS011;45528;52.102;5.242;2023-04-01T00:47:05;32.1;;;12.9;;
32451;SDS011;45528;52.102;5.242;2023-04-01T00:50:21;27.8;;;11.9;;
32451;SDS011;45528;52.102;5.242;2023-04-01T00:52:01;24.5;;;11.9;;
32451;SDS011;45528;52.102;5.242;2023-04-01T00:53:40;23.9;;;11.5;;
32451;SDS011;45528;52.102;5.242;2023-04-01T00:55:21;29.6;;;11.9;;
32451;SDS011;45528;52.102;5.242;2023-04-01T00:58:40;31.0;;;13.1;;
32451;SDS011;45528;52.102;5.242;2023-04-01T01:00:20;31.9;;;13.6;;
32451;SDS011;45528;52.102;5.242;2023-04-01T01:01:56;27.0;;;13.2;;
32451;SDS011;45528;52.102;5.242;2023-04-01T01:05:08;29.1;;;13.0;;
32451;SDS011;45528;52.102;5.242;2023-04-01T01:06:49;32.0;;;14.3;;
32451;SDS011;45528;52.102;5.242;2023-04-01T01:08:39;32.9;;;13.5;;
32451;SDS011;45528;52.102;5.242;2023-04-01T01:10:39;37.6;;;14.8;;
32451;SDS011;45528;52.102;5.242;2023-04-01T01:12:17;35.6;;;14.5;;
32451;SDS011;45528;52.102;5.242;2023-04-01T01:15:40;35.21;;;15.5;;
32451;SDS011;45528;52.102;5.242;2023-04-01T01:17:25;35.0;;;15.2;;
32451;SDS011;45528;52.102;5.242;2023-04-01T01:19:19;24.6;;;11.6;;
32451;SDS011;45528;52.102;5.242;2023-04-01T01:21:52;23.9;;;11.3;;
32451;SDS011;45528;52.102;5.242;2023-04-01T01:23:46;18.0;;;8.81;;
32451;SDS011;45528;52.102;5.242;2023-04-01T01:26:22;15.1;;;7.4;;
32451;SDS011;45528;52.102;5.242;2023-04-01T01:28:37;18.11;;;7.7;;
32451;SDS011;45528;52.102;5.242;2023-04-01T01:30:35;19.2;;;8.4;;
32451;SDS011;45528;52.102;5.242;2023-04-01T01:32:20;17.8;;;8.0;;
32451;SDS011;45528;52.102;5.242;2023-04-01T01:35:14;18.7;;;8.9;;
32451;SDS011;45528;52.102;5.242;2023-04-01T01:38:41;17.3;;;7.8;;
32451;SDS011;45528;52.102;5.242;2023-04-01T01:40:19;14.9;;;7.3;;
32451;SDS011;45528;52.102;5.242;2023-04-01T01:41:56;17.0;;;7.6;;
32451;SDS011;45528;52.102;5.242;2023-04-01T01:43:36;15.4;;;6.7;;
32451;SDS011;45528;52.102;5.242;2023-04-01T01:46:57;16.11;;;6.8;;
32451;SDS011;45528;52.102;5.242;2023-04-01T01:48:36;14.1;;;7.1;;
32451;SDS011;45528;52.102;5.242;2023-04-01T01:50:12;14.1;;;6.6;;
32451;SDS011;45528;52.102;5.242;2023-04-01T01:51:52;11.1;;;6.0;;
32451;SDS011;45528;52.102;5.242;2023-04-01T01:55:22;14.4;;;6.2;;
32451;SDS011;45528;52.102;5.242;2023-04-01T01:57:02;14.4;;;6.2;;
32451;SDS011;45528;52.102;5.242;2023-04-01T01:58:43;12.4;;;6.5;;
32451;SDS011;45528;52.102;5.242;2023-04-01T02:00:22;12.1;;;6.3;;
32451;SDS011;45528;52.102;5.242;2023-04-01T02:03:36;10.6;;;5.5;;
32451;SDS011;45528;52.102;5.242;2023-04-01T02:05:16;12.8;;;5.8;;
32451;SDS011;45528;52.102;5.242;2023-04-01T02:06:56;10.5;;;6.1;;
32451;SDS011;45528;52.102;5.242;2023-04-01T02:08:38;11.3;;;6.1;;
32451;SDS011;45528;52.102;5.242;2023-04-01T02:11:59;16.11;;;7.0;;
32451;SDS011;45528;52.102;5.242;2023-04-01T02:13:40;16.3;;;6.7;;
32451;SDS011;45528;52.102;5.242;2023-04-01T02:15:22;13.5;;;6.4;;
32451;SDS011;45528;52.102;5.242;2023-04-01T02:17:04;14.3;;;6.5;;
32451;SDS011;45528;52.102;5.242;2023-04-01T02:20:24;14.6;;;7.0;;
32451;SDS011;45528;52.102;5.242;2023-04-01T02:22:05;14.1;;;6.9;;
32451;SDS011;45528;52.102;5.242;2023-04-01T02:23:46;14.7;;;6.4;;
32451;SDS011;45528;52.102;5.242;2023-04-01T02:25:23;18.2;;;7.9;;
32451;SDS011;45528;52.102;5.242;2023-04-01T02:28:39;15.6;;;7.1;;
32451;SDS011;45528;52.102;5.242;2023-04-01T02:30:19;18.61;;;7.8;;
32451;SDS011;45528;52.102;5.242;2023-04-01T02:31:56;16.9;;;8.31;;
32451;SDS011;45528;52.102;5.242;2023-04-01T02:35:10;17.2;;;8.31;;
32451;SDS011;45528;52.102;5.242;2023-04-01T02:36:49;21.0;;;8.1;;
32451;SDS011;45528;52.102;5.242;2023-04-01T02:38:26;19.0;;;8.2;;
32451;SDS011;45528;52.102;5.242;2023-04-01T02:40:03;16.0;;;7.5;;
32451;SDS011;45528;52.102;5.242;2023-04-01T02:43:20;18.3;;;7.9;;
32451;SDS011;45528;52.102;5.242;2023-04-01T02:44:57;13.8;;;7.0;;
32451;SDS011;45528;52.102;5.242;2023-04-01T02:46:33;18.11;;;8.1;;
32451;SDS011;45528;52.102;5.242;2023-04-01T02:49:45;15.4;;;7.0;;
32451;SDS011;45528;52.102;5.242;2023-04-01T02:51:22;17.5;;;7.5;;
32451;SDS011;45528;52.102;5.242;2023-04-01T02:52:58;17.8;;;7.0;;
32451;SDS011;45528;52.102;5.242;2023-04-01T02:54:34;15.9;;;7.0;;
32451;SDS011;45528;52.102;5.242;2023-04-01T02:57:47;14.2;;;6.7;;
32451;SDS011;45528;52.102;5.242;2023-04-01T02:59:24;14.2;;;6.5;;
32451;SDS011;45528;52.102;5.242;2023-04-01T03:01:00;12.4;;;6.3;;
32451;SDS011;45528;52.102;5.242;2023-04-01T03:04:13;13.4;;;6.1;;
32451;SDS011;45528;52.102;5.242;2023-04-01T03:05:49;14.4;;;6.6;;
32451;SDS011;45528;52.102;5.242;2023-04-01T03:07:25;12.4;;;6.1;;
32451;SDS011;45528;52.102;5.242;2023-04-01T03:10:37;12.8;;;6.0;;
32451;SDS011;45528;52.102;5.242;2023-04-01T03:12:14;10.5;;;6.3;;
32451;SDS011;45528;52.102;5.242;2023-04-01T03:13:50;14.9;;;6.0;;
32451;SDS011;45528;52.102;5.242;2023-04-01T03:17:02;9.9;;;6.0;;
32451;SDS011;45528;52.102;5.242;2023-04-01T03:18:38;13.2;;;6.5;;
32451;SDS011;45528;52.102;5.242;2023-04-01T03:20:14;15.0;;;7.0;;
32451;SDS011;45528;52.102;5.242;2023-04-01T03:21:51;11.0;;;6.6;;
32451;SDS011;45528;52.102;5.242;2023-04-01T03:25:04;11.8;;;6.4;;
32451;SDS011;45528;52.102;5.242;2023-04-01T03:26:42;12.3;;;7.4;;
32451;SDS011;45528;52.102;5.242;2023-04-01T03:28:18;11.2;;;7.0;;
32451;SDS011;45528;52.102;5.242;2023-04-01T03:31:30;14.2;;;7.9;;
32451;SDS011;45528;52.102;5.242;2023-04-01T03:33:06;14.6;;;7.8;;
32451;SDS011;45528;52.102;5.242;2023-04-01T03:34:43;12.2;;;7.8;;
32451;SDS011;45528;52.102;5.242;2023-04-01T03:37:55;13.0;;;7.7;;
32451;SDS011;45528;52.102;5.242;2023-04-01T03:39:31;13.8;;;8.9;;
32451;SDS011;45528;52.102;5.242;2023-04-01T03:41:07;11.7;;;7.9;;
32451;SDS011;45528;52.102;5.242;2023-04-01T03:42:47;12.3;;;8.1;;
32451;SDS011;45528;52.102;5.242;2023-04-01T03:46:00;13.4;;;8.6;;
32451;SDS011;45528;52.102;5.242;2023-04-01T03:47:37;13.5;;;8.2;;
32451;SDS011;45528;52.102;5.242;2023-04-01T03:49:13;12.5;;;7.9;;
32451;SDS011;45528;52.102;5.242;2023-04-01T03:52:25;11.5;;;7.8;;
32451;SDS011;45528;52.102;5.242;2023-04-01T03:54:01;12.7;;;8.2;;
32451;SDS011;45528;52.102;5.242;2023-04-01T03:55:37;14.2;;;8.71;;
32451;SDS011;45528;52.102;5.242;2023-04-01T03:58:50;13.9;;;7.6;;
32451;SDS011;45528;52.102;5.242;2023-04-01T04:00:27;11.4;;;7.5;;
32451;SDS011;45528;52.102;5.242;2023-04-01T04:02:04;11.2;;;7.1;;
32451;SDS011;45528;52.102;5.242;2023-04-01T04:03:40;16.2;;;7.6;;
32451;SDS011;45528;52.102;5.242;2023-04-01T04:06:52;13.2;;;7.4;;
32451;SDS011;45528;52.102;5.242;2023-04-01T04:08:29;12.4;;;7.7;;
32451;SDS011;45528;52.102;5.242;2023-04-01T04:10:06;14.0;;;8.4;;
32451;SDS011;45528;52.102;5.242;2023-04-01T04:13:18;12.4;;;8.71;;
32451;SDS011;45528;52.102;5.242;2023-04-01T04:14:55;14.5;;;9.21;;
32451;SDS011;45528;52.102;5.242;2023-04-01T04:16:34;16.2;;;9.71;;
32451;SDS011;45528;52.102;5.242;2023-04-01T04:19:47;17.11;;;10.1;;
32451;SDS011;45528;52.102;5.242;2023-04-01T04:21:23;14.2;;;9.31;;
32451;SDS011;45528;52.102;5.242;2023-04-01T04:23:00;18.41;;;9.71;;
32451;SDS011;45528;52.102;5.242;2023-04-01T04:24:36;14.4;;;9.4;;
32451;SDS011;45528;52.102;5.242;2023-04-01T04:27:51;16.61;;;9.9;;
32451;SDS011;45528;52.102;5.242;2023-04-01T04:29:27;14.3;;;8.4;;
32451;SDS011;45528;52.102;5.242;2023-04-01T04:31:03;15.9;;;8.6;;
32451;SDS011;45528;52.102;5.242;2023-04-01T04:34:16;13.5;;;7.5;;
32451;SDS011;45528;52.102;5.242;2023-04-01T04:35:54;13.1;;;7.3;;
32451;SDS011;45528;52.102;5.242;2023-04-01T04:37:31;10.9;;;6.6;;
32451;SDS011;45528;52.102;5.242;2023-04-01T04:40:44;12.2;;;6.6;;
32451;SDS011;45528;52.102;5.242;2023-04-01T04:42:21;14.7;;;6.4;;
32451;SDS011;45528;52.102;5.242;2023-04-01T04:43:57;11.4;;;6.1;;
32451;SDS011;45528;52.102;5.242;2023-04-01T04:45:33;10.7;;;6.0;;
32451;SDS011;45528;52.102;5.242;2023-04-01T04:48:45;14.0;;;5.9;;
32451;SDS011;45528;52.102;5.242;2023-04-01T04:50:21;10.21;;;5.8;;
32451;SDS011;45528;52.102;5.242;2023-04-01T04:51:58;11.0;;;5.6;;
32451;SDS011;45528;52.102;5.242;2023-04-01T04:55:11;11.1;;;6.4;;
32451;SDS011;45528;52.102;5.242;2023-04-01T04:56:48;11.5;;;6.4;;
32451;SDS011;45528;52.102;5.242;2023-04-01T04:58:27;11.7;;;6.6;;
32451;SDS011;45528;52.102;5.242;2023-04-01T05:01:41;12.2;;;6.9;;
32451;SDS011;45528;52.102;5.242;2023-04-01T05:03:17;12.6;;;7.8;;
32451;SDS011;45528;52.102;5.242;2023-04-01T05:04:53;14.3;;;7.6;;
32451;SDS011;45528;52.102;5.242;2023-04-01T05:06:29;12.0;;;7.1;;
32451;SDS011;45528;52.102;5.242;2023-04-01T05:09:41;13.4;;;7.7;;
32451;SDS011;45528;52.102;5.242;2023-04-01T05:11:17;13.1;;;7.3;;
32451;SDS011;45528;52.102;5.242;2023-04-01T05:12:55;12.5;;;7.5;;
32451;SDS011;45528;52.102;5.242;2023-04-01T05:16:07;12.5;;;7.3;;
32451;SDS011;45528;52.102;5.242;2023-04-01T05:17:44;13.9;;;7.7;;
32451;SDS011;45528;52.102;5.242;2023-04-01T05:19:20;14.3;;;8.2;;
32451;SDS011;45528;52.102;5.242;2023-04-01T05:22:31;14.3;;;8.5;;
32451;SDS011;45528;52.102;5.242;2023-04-01T05:24:07;14.3;;;8.31;;
32451;SDS011;45528;52.102;5.242;2023-04-01T05:25:44;13.8;;;8.2;;
32451;SDS011;45528;52.102;5.242;2023-04-01T05:27:19;15.0;;;8.5;;
32451;SDS011;45528;52.102;5.242;2023-04-01T05:30:31;18.11;;;9.4;;
32451;SDS011;45528;52.102;5.242;2023-04-01T05:32:07;14.0;;;8.81;;
32451;SDS011;45528;52.102;5.242;2023-04-01T05:33:43;14.2;;;8.5;;
32451;SDS011;45528;52.102;5.242;2023-04-01T05:36:55;15.9;;;9.21;;
32451;SDS011;45528;52.102;5.242;2023-04-01T05:38:31;17.61;;;9.31;;
32451;SDS011;45528;52.102;5.242;2023-04-01T05:40:08;14.5;;;9.31;;
32451;SDS011;45528;52.102;5.242;2023-04-01T05:43:21;14.5;;;9.4;;
32451;SDS011;45528;52.102;5.242;2023-04-01T05:44:57;17.11;;;9.31;;
32451;SDS011;45528;52.102;5.242;2023-04-01T05:46:33;13.8;;;9.21;;
32451;SDS011;45528;52.102;5.242;2023-04-01T05:49:45;13.9;;;9.0;;
32451;SDS011;45528;52.102;5.242;2023-04-01T05:51:21;16.4;;;9.71;;
32451;SDS011;45528;52.102;5.242;2023-04-01T05:52:58;18.2;;;9.6;;
32451;SDS011;45528;52.102;5.242;2023-04-01T05:54:35;16.9;;;10.0;;
32451;SDS011;45528;52.102;5.242;2023-04-01T05:57:47;17.2;;;10.3;;
32451;SDS011;45528;52.102;5.242;2023-04-01T05:59:23;15.0;;;8.9;;
32451;SDS011;45528;52.102;5.242;2023-04-01T06:01:00;15.3;;;9.1;;
32451;SDS011;45528;52.102;5.242;2023-04-01T06:04:14;19.11;;;10.9;;
32451;SDS011;45528;52.102;5.242;2023-04-01T06:05:51;17.7;;;10.7;;
32451;SDS011;45528;52.102;5.242;2023-04-01T06:07:28;18.11;;;10.5;;
32451;SDS011;45528;52.102;5.242;2023-04-01T06:10:52;19.91;;;11.4;;
32451;SDS011;45528;52.102;5.242;2023-04-01T06:12:41;17.91;;;11.0;;
32451;SDS011;45528;52.102;5.242;2023-04-01T06:14:39;16.2;;;10.7;;
32451;SDS011;45528;52.102;5.242;2023-04-01T06:16:29;18.41;;;11.8;;
32451;SDS011;45528;52.102;5.242;2023-04-01T06:18:21;20.6;;;11.4;;
32451;SDS011;45528;52.102;5.242;2023-04-01T06:21:04;18.3;;;11.5;;
32451;SDS011;45528;52.102;5.242;2023-04-01T06:23:06;18.2;;;11.2;;
32451;SDS011;45528;52.102;5.242;2023-04-01T06:25:21;18.41;;;11.4;;
32451;SDS011;45528;52.102;5.242;2023-04-01T06:27:07;16.8;;;11.5;;
32451;SDS011;45528;52.102;5.242;2023-04-01T06:29:01;16.61;;;10.7;;
32451;SDS011;45528;52.102;5.242;2023-04-01T06:31:09;16.2;;;10.6;;
32451;SDS011;45528;52.102;5.242;2023-04-01T06:37:57;18.0;;;10.7;;
32451;SDS011;45528;52.102;5.242;2023-04-01T06:41:11;15.5;;;9.71;;
32451;SDS011;45528;52.102;5.242;2023-04-01T06:44:14;13.9;;;9.5;;
32451;SDS011;45528;52.102;5.242;2023-04-01T06:46:00;14.7;;;9.5;;
32451;SDS011;45528;52.102;5.242;2023-04-01T06:47:49;15.4;;;9.71;;
32451;SDS011;45528;52.102;5.242;2023-04-01T06:49:41;15.2;;;9.1;;
32451;SDS011;45528;52.102;5.242;2023-04-01T06:51:31;13.1;;;8.1;;
32451;SDS011;45528;52.102;5.242;2023-04-01T06:53:21;13.1;;;8.0;;
32451;SDS011;45528;52.102;5.242;2023-04-01T06:57:03;12.2;;;7.6;;
32451;SDS011;45528;52.102;5.242;2023-04-01T06:58:56;11.9;;;7.2;;
32451;SDS011;45528;52.102;5.242;2023-04-01T07:00:39;12.5;;;7.4;;
32451;SDS011;45528;52.102;5.242;2023-04-01T07:02:22;13.2;;;7.1;;
32451;SDS011;45528;52.102;5.242;2023-04-01T07:04:05;11.4;;;7.0;;
32451;SDS011;45528;52.102;5.242;2023-04-01T07:05:49;11.4;;;6.8;;
32451;SDS011;45528;52.102;5.242;2023-04-01T07:09:12;14.0;;;7.5;;
32451;SDS011;45528;52.102;5.242;2023-04-01T07:10:53;12.6;;;6.9;;
32451;SDS011;45528;52.102;5.242;2023-04-01T07:12:36;11.3;;;6.9;;
32451;SDS011;45528;52.102;5.242;2023-04-01T07:14:19;9.6;;;6.4;;
32451;SDS011;45528;52.102;5.242;2023-04-01T07:17:51;9.81;;;6.4;;
32451;SDS011;45528;52.102;5.242;2023-04-01T07:19:32;11.3;;;6.8;;
32451;SDS011;45528;52.102;5.242;2023-04-01T07:21:20;12.3;;;7.8;;
32451;SDS011;45528;52.102;5.242;2023-04-01T07:23:02;14.9;;;8.6;;
32451;SDS011;45528;52.102;5.242;2023-04-01T07:24:41;16.11;;;9.0;;
32451;SDS011;45528;52.102;5.242;2023-04-01T07:28:00;14.1;;;8.71;;
32451;SDS011;45528;52.102;5.242;2023-04-01T07:29:40;16.4;;;9.6;;
32451;SDS011;45528;52.102;5.242;2023-04-01T07:31:20;16.2;;;9.9;;
32451;SDS011;45528;52.102;5.242;2023-04-01T07:33:08;14.9;;;10.21;;
32451;SDS011;45528;52.102;5.242;2023-04-01T07:36:48;20.41;;;10.21;;
32451;SDS011;45528;52.102;5.242;2023-04-01T07:38:36;18.61;;;9.31;;
32451;SDS011;45528;52.102;5.242;2023-04-01T07:40:26;17.2;;;10.1;;
32451;SDS011;45528;52.102;5.242;2023-04-01T07:42:15;14.4;;;9.21;;
32451;SDS011;45528;52.102;5.242;2023-04-01T07:44:02;20.5;;;10.7;;
32451;SDS011;45528;52.102;5.242;2023-04-01T07:45:54;16.5;;;9.6;;
32451;SDS011;45528;52.102;5.242;2023-04-01T07:47:41;17.41;;;9.5;;
32451;SDS011;45528;52.102;5.242;2023-04-01T07:51:21;14.6;;;8.71;;
32451;SDS011;45528;52.102;5.242;2023-04-01T07:53:06;19.3;;;9.5;;
32451;SDS011;45528;52.102;5.242;2023-04-01T07:54:53;15.8;;;9.21;;
32451;SDS011;45528;52.102;5.242;2023-04-01T07:56:38;16.9;;;9.6;;
32451;SDS011;45528;52.102;5.242;2023-04-01T07:58:23;20.41;;;10.5;;
32451;SDS011;45528;52.102;5.242;2023-04-01T08:00:11;18.8;;;10.1;;
32451;SDS011;45528;52.102;5.242;2023-04-01T08:03:51;20.41;;;10.1;;
32451;SDS011;45528;52.102;5.242;2023-04-01T08:05:49;20.41;;;10.6;;
32451;SDS011;45528;52.102;5.242;2023-04-01T08:07:33;16.9;;;9.9;;
32451;SDS011;45528;52.102;5.242;2023-04-01T08:09:19;21.4;;;10.9;;
32451;SDS011;45528;52.102;5.242;2023-04-01T08:11:08;17.3;;;10.5;;
32451;SDS011;45528;52.102;5.242;2023-04-01T08:12:59;16.3;;;10.1;;
32451;SDS011;45528;52.102;5.242;2023-04-01T08:14:48;16.9;;;9.71;;
32451;SDS011;45528;52.102;5.242;2023-04-01T08:18:19;19.0;;;10.21;;
32451;SDS011;45528;52.102;5.242;2023-04-01T08:20:11;18.2;;;10.21;;
32451;SDS011;45528;52.102;5.242;2023-04-01T08:21:57;21.1;;;11.1;;
32451;SDS011;45528;52.102;5.242;2023-04-01T08:23:40;18.7;;;10.7;;
32451;SDS011;45528;52.102;5.242;2023-04-01T08:25:20;21.7;;;11.5;;
32451;SDS011;45528;52.102;5.242;2023-04-01T08:28:45;22.6;;;12.2;;
32451;SDS011;45528;52.102;5.242;2023-04-01T08:30:30;21.9;;;11.9;;
32451;SDS011;45528;52.102;5.242;2023-04-01T08:32:17;22.0;;;11.5;;
32451;SDS011;45528;52.102;5.242;2023-04-01T08:33:59;21.8;;;11.5;;
32451;SDS011;45528;52.102;5.242;2023-04-01T08:35:40;21.4;;;12.2;;
32451;SDS011;45528;52.102;5.242;2023-04-01T08:39:09;20.5;;;11.5;;
32451;SDS011;45528;52.102;5.242;2023-04-01T08:41:53;22.4;;;11.6;;
32451;SDS011;45528;52.102;5.242;2023-04-01T08:44:49;22.8;;;12.0;;
32451;SDS011;45528;52.102;5.242;2023-04-01T08:47:50;21.3;;;12.4;;
32451;SDS011;45528;52.102;5.242;2023-04-01T08:51:14;21.4;;;12.2;;
32451;SDS011;45528;52.102;5.242;2023-04-01T08:54:08;25.4;;;12.5;;
32451;SDS011;45528;52.102;5.242;2023-04-01T08:57:25;21.2;;;12.5;;
32451;SDS011;45528;52.102;5.242;2023-04-01T08:59:24;29.7;;;13.9;;
32451;SDS011;45528;52.102;5.242;2023-04-01T09:01:33;28.2;;;13.4;;
32451;SDS011;45528;52.102;5.242;2023-04-01T09:04:39;23.2;;;13.1;;
32451;SDS011;45528;52.102;5.242;2023-04-01T09:06:36;26.6;;;13.8;;
32451;SDS011;45528;52.102;5.242;2023-04-01T09:08:30;30.1;;;14.5;;
32451;SDS011;45528;52.102;5.242;2023-04-01T09:10:24;27.5;;;14.8;;
32451;SDS011;45528;52.102;5.242;2023-04-01T09:13:05;30.9;;;14.9;;
32451;SDS011;45528;52.102;5.242;2023-04-01T09:15:30;30.7;;;15.1;;
32451;SDS011;45528;52.102;5.242;2023-04-01T09:18:47;33.3;;;16.61;;
32451;SDS011;45528;52.102;5.242;2023-04-01T09:21:41;31.5;;;16.0;;
32451;SDS011;45528;52.102;5.242;2023-04-01T09:23:48;34.1;;;15.0;;
32451;SDS011;45528;52.102;5.242;2023-04-01T09:26:13;30.9;;;14.4;;
32451;SDS011;45528;52.102;5.242;2023-04-01T09:28:05;24.5;;;13.4;;
32451;SDS011;45528;52.102;5.242;2023-04-01T09:32:23;20.7;;;12.1;;
32451;SDS011;45528;52.102;5.242;2023-04-01T09:36:02;25.5;;;12.4;;
32451;SDS011;45528;52.102;5.242;2023-04-01T09:37:47;23.5;;;11.9;;
32451;SDS011;45528;52.102;5.242;2023-04-01T09:39:36;20.9;;;12.2;;
32451;SDS011;45528;52.102;5.242;2023-04-01T09:41:20;23.7;;;11.7;;
32451;SDS011;45528;52.102;5.242;2023-04-01T09:43:12;22.5;;;11.8;;
32451;SDS011;45528;52.102;5.242;2023-04-01T09:45:05;17.0;;;9.9;;
32451;SDS011;45528;52.102;5.242;2023-04-01T09:46:56;19.11;;;10.6;;
32451;SDS011;45528;52.102;5.242;2023-04-01T09:52:18;19.91;;;10.0;;
32451;SDS011;45528;52.102;5.242;2023-04-01T09:54:07;17.3;;;9.31;;
32451;SDS011;45528;52.102;5.242;2023-04-01T09:56:13;15.5;;;9.4;;
32451;SDS011;45528;52.102;5.242;2023-04-01T09:59:20;16.8;;;9.21;;
32451;SDS011;45528;52.102;5.242;2023-04-01T10:01:24;16.61;;;9.5;;
32451;SDS011;45528;52.102;5.242;2023-04-01T10:05:40;18.2;;;9.9;;
32451;SDS011;45528;52.102;5.242;2023-04-01T10:16:47;9.0;;;5.3;;
32451;SDS011;45528;52.102;5.242;2023-04-01T10:20:24;6.3;;;4.61;;
32451;SDS011;45528;52.102;5.242;2023-04-01T10:23:30;7.0;;;4.5;;
32451;SDS011;45528;52.102;5.242;2023-04-01T10:26:08;8.4;;;4.91;;
32451;SDS011;45528;52.102;5.242;2023-04-01T10:29:36;9.6;;;5.5;;
32451;SDS011;45528;52.102;5.242;2023-04-01T10:32:50;10.1;;;5.2;;
32451;SDS011;45528;52.102;5.242;2023-04-01T10:36:41;8.81;;;5.4;;
32451;SDS011;45528;52.102;5.242;2023-04-01T10:38:42;9.1;;;5.9;;
32451;SDS011;45528;52.102;5.242;2023-04-01T10:45:32;11.5;;;7.6;;
32451;SDS011;45528;52.102;5.242;2023-04-01T10:49:56;13.4;;;7.8;;
32451;SDS011;45528;52.102;5.242;2023-04-01T10:51:59;13.7;;;8.5;;
32451;SDS011;45528;52.102;5.242;2023-04-01T10:55:59;12.8;;;8.31;;
32451;SDS011;45528;52.102;5.242;2023-04-01T11:04:43;12.3;;;7.9;;
32451;SDS011;45528;52.102;5.242;2023-04-01T11:06:19;13.4;;;7.8;;
32451;SDS011;45528;52.102;5.242;2023-04-01T11:12:18;10.3;;;7.3;;
32451;SDS011;45528;52.102;5.242;2023-04-01T11:13:19;12.1;;;7.2;;
32451;SDS011;45528;52.102;5.242;2023-04-01T11:14:19;12.1;;;7.2;;
32451;SDS011;45528;52.102;5.242;2023-04-01T11:17:41;9.9;;;6.2;;
32451;SDS011;45528;52.102;5.242;2023-04-01T11:18:25;9.9;;;6.2;;
32451;SDS011;45528;52.102;5.242;2023-04-01T11:20:34;9.71;;;6.3;;
32451;SDS011;45528;52.102;5.242;2023-04-01T11:23:16;8.71;;;5.7;;
32451;SDS011;45528;52.102;5.242;2023-04-01T11:25:34;7.9;;;5.4;;
32451;SDS011;45528;52.102;5.242;2023-04-01T11:27:56;8.31;;;5.11;;
32451;SDS011;45528;52.102;5.242;2023-04-01T11:30:16;8.9;;;4.5;;
32451;SDS011;45528;52.102;5.242;2023-04-01T11:32:06;7.2;;;4.5;;
32451;SDS011;45528;52.102;5.242;2023-04-01T11:33:55;7.3;;;4.8;;
32451;SDS011;45528;52.102;5.242;2023-04-01T11:35:46;6.1;;;4.0;;
32451;SDS011;45528;52.102;5.242;2023-04-01T11:38:03;7.5;;;4.5;;
32451;SDS011;45528;52.102;5.242;2023-04-01T11:39:56;6.9;;;4.3;;
32451;SDS011;45528;52.102;5.242;2023-04-01T11:43:29;6.3;;;4.61;;
32451;SDS011;45528;52.102;5.242;2023-04-01T11:45:19;5.9;;;4.5;;
32451;SDS011;45528;52.102;5.242;2023-04-01T11:47:12;7.7;;;5.0;;
32451;SDS011;45528;52.102;5.242;2023-04-01T11:49:36;6.2;;;4.3;;
32451;SDS011;45528;52.102;5.242;2023-04-01T11:51:32;6.1;;;4.41;;
32451;SDS011;45528;52.102;5.242;2023-04-01T11:54:03;6.2;;;4.0;;
32451;SDS011;45528;52.102;5.242;2023-04-01T11:55:54;7.5;;;4.7;;
32451;SDS011;45528;52.102;5.242;2023-04-01T11:57:50;6.4;;;4.1;;
32451;SDS011;45528;52.102;5.242;2023-04-01T11:59:47;6.8;;;4.41;;
32451;SDS011;45528;52.102;5.242;2023-04-01T12:01:43;5.9;;;3.8;;
32451;SDS011;45528;52.102;5.242;2023-04-01T12:03:35;6.3;;;4.5;;
32451;SDS011;45528;52.102;5.242;2023-04-01T12:06:00;8.1;;;4.5;;
32451;SDS011;45528;52.102;5.242;2023-04-01T12:07:50;7.5;;;4.41;;
32451;SDS011;45528;52.102;5.242;2023-04-01T12:09:39;7.9;;;4.7;;
32451;SDS011;45528;52.102;5.242;2023-04-01T12:11:26;7.5;;;5.11;;
32451;SDS011;45528;52.102;5.242;2023-04-01T12:15:03;7.2;;;5.2;;
32451;SDS011;45528;52.102;5.242;2023-04-01T12:16:56;6.3;;;5.11;;
32451;SDS011;45528;52.102;5.242;2023-04-01T12:18:40;6.6;;;5.0;;
32451;SDS011;45528;52.102;5.242;2023-04-01T12:20:26;7.3;;;5.3;;
32451;SDS011;45528;52.102;5.242;2023-04-01T12:22:19;7.9;;;5.8;;
32451;SDS011;45528;52.102;5.242;2023-04-01T12:24:35;10.8;;;6.7;;
32451;SDS011;45528;52.102;5.242;2023-04-01T12:26:41;8.31;;;6.4;;
32451;SDS011;45528;52.102;5.242;2023-04-01T12:29:07;8.0;;;6.0;;
32451;SDS011;45528;52.102;5.242;2023-04-01T12:31:01;9.1;;;6.4;;
32451;SDS011;45528;52.102;5.242;2023-04-01T12:32:53;10.8;;;7.3;;
32451;SDS011;45528;52.102;5.242;2023-04-01T12:34:45;9.6;;;7.5;;
32451;SDS011;45528;52.102;5.242;2023-04-01T12:36:40;10.1;;;7.1;;
32451;SDS011;45528;52.102;5.242;2023-04-01T12:38:30;12.2;;;7.7;;
32451;SDS011;45528;52.102;5.242;2023-04-01T12:43:10;15.4;;;7.8;;
32451;SDS011;45528;52.102;5.242;2023-04-01T12:45:13;8.6;;;6.5;;
32451;SDS011;45528;52.102;5.242;2023-04-01T12:47:34;11.5;;;7.4;;
32451;SDS011;45528;52.102;5.242;2023-04-01T12:51:11;7.2;;;5.0;;
32451;SDS011;45528;52.102;5.242;2023-04-01T12:54:09;7.6;;;5.2;;
32451;SDS011;45528;52.102;5.242;2023-04-01T12:58:00;9.1;;;7.1;;
32451;SDS011;45528;52.102;5.242;2023-04-01T13:01:42;14.0;;;8.2;;
32451;SDS011;45528;52.102;5.242;2023-04-01T13:03:47;13.6;;;8.31;;
32451;SDS011;45528;52.102;5.242;2023-04-01T13:05:48;14.8;;;9.5;;
32451;SDS011;45528;52.102;5.242;2023-04-01T13:09:22;15.4;;;10.21;;
32451;SDS011;45528;52.102;5.242;2023-04-01T13:11:09;15.7;;;10.5;;
32451;SDS011;45528;52.102;5.242;2023-04-01T13:13:00;15.1;;;9.81;;
32451;SDS011;45528;52.102;5.242;2023-04-01T13:15:14;15.3;;;9.81;;
32451;SDS011;45528;52.102;5.242;2023-04-01T13:17:13;15.3;;;10.3;;
32451;SDS011;45528;52.102;5.242;2023-04-01T13:18:58;15.5;;;10.21;;
32451;SDS011;45528;52.102;5.242;2023-04-01T13:20:43;14.4;;;9.81;;
32451;SDS011;45528;52.102;5.242;2023-04-01T13:22:26;12.7;;;9.6;;
32451;SDS011;45528;52.102;5.242;2023-04-01T13:26:14;16.2;;;9.71;;
32451;SDS011;45528;52.102;5.242;2023-04-01T13:28:00;14.4;;;9.71;;
32451;SDS011;45528;52.102;5.242;2023-04-01T13:29:45;15.3;;;9.1;;
32451;SDS011;45528;52.102;5.242;2023-04-01T13:31:50;11.8;;;8.0;;
32451;SDS011;45528;52.102;5.242;2023-04-01T13:33:42;11.8;;;7.7;;
32451;SDS011;45528;52.102;5.242;2023-04-01T13:35:29;10.6;;;6.5;;
32451;SDS011;45528;52.102;5.242;2023-04-01T13:37:18;11.4;;;7.3;;
32451;SDS011;45528;52.102;5.242;2023-04-01T13:39:14;11.4;;;6.9;;
32451;SDS011;45528;52.102;5.242;2023-04-01T13:41:10;11.2;;;6.9;;
32451;SDS011;45528;52.102;5.242;2023-04-01T13:44:40;9.31;;;6.2;;
32451;SDS011;45528;52.102;5.242;2023-04-01T13:46:34;9.1;;;6.3;;
32451;SDS011;45528;52.102;5.242;2023-04-01T13:50:14;9.5;;;6.3;;
32451;SDS011;45528;52.102;5.242;2023-04-01T13:52:12;8.71;;;5.8;;
32451;SDS011;45528;52.102;5.242;2023-04-01T13:54:12;7.8;;;5.2;;